Date,TemperatureHighF,TemperatureAvgF,TemperatureLowF,DewpointHighF,DewpointAvgF,DewpointLowF,HumidityHigh,HumidityAvg,HumidityLow,PressureMaxIn,PressureMinIn,WindSpeedMaxMPH,WindSpeedAvgMPH,GustSpeedMaxMPH,PrecipitationSumIn
2013-1-1,76,64,55,61,58,-19,98,80,58,30.21,30.03,20,4,20,0.00
2013-1-2,77,69,62,73,66,-20,99,90,73,30.20,29.98,14,4,14,0.22
2013-1-3,72,64,59,68,63,58,100,97,83,30.16,30.01,17,5,17,0.64
2013-1-4,60,57,54,58,56,54,98,97,94,30.27,30.15,12,5,12,0.21
2013-1-5,72,60,52,62,56,49,97,87,70,30.29,30.17,12,5,12,0.00
2013-1-6,78,64,60,69,62,58,99,94,75,30.19,30.07,12,5,12,0.01
2013-1-7,68,62,57,63,59,-42,98,90,68,30.20,30.09,16,7,16,0.84
2013-1-8,82,70,60,70,65,59,98,85,63,30.21,30.10,12,4,12,0.00
2013-1-9,83,74,68,72,68,66,98,83,61,30.27,30.15,21,6,21,0.00
2013-1-10,83,74,67,70,66,-32,98,76,53,30.27,30.19,21,6,21,0.75
2013-1-11,82,72,65,68,65,64,97,81,56,30.24,30.11,20,5,20,0.00
2013-1-12,82,70,64,69,66,63,97,87,59,30.16,30.07,21,5,21,0.00
2013-1-13,80,71,64,68,66,63,95,84,64,30.15,30.04,14,5,14,0.00
2013-1-14,80,69,63,66,63,59,97,82,54,30.17,30.09,12,3,12,1.13
2013-1-15,80,68,61,68,63,59,97,85,59,30.21,30.03,16,3,16,0.00
2013-1-16,81,69,63,68,64,62,98,85,54,30.09,29.99,12,3,12,0.01
2013-1-17,70,63,52,68,59,44,99,89,67,30.15,29.97,28,10,28,1.66
2013-1-18,62,54,43,54,46,36,83,76,69,30.31,30.15,21,9,21,0.00
2013-1-19,76,65,53,61,56,47,85,73,59,30.27,30.12,16,7,16,0.45
2013-1-20,73,64,58,63,58,-19,94,83,70,30.17,30.04,15,5,15,1.20
2013-1-21,70,64,60,61,57,52,91,80,67,30.10,30.02,16,5,16,0.00
2013-1-22,65,59,50,53,42,33,78,55,32,30.28,30.07,16,6,16,0.00
2013-1-23,65,54,46,47,40,33,90,61,35,30.36,30.27,14,5,14,1.27
2013-1-24,67,55,45,56,49,43,96,82,50,30.34,30.25,12,3,12,1.05
2013-1-25,74,58,49,58,52,47,98,82,42,30.31,30.19,12,2,12,0.01
2013-1-26,77,61,52,61,57,51,99,86,67,30.28,30.18,12,3,12,1.21
2013-1-27,78,63,53,63,57,53,99,83,45,30.46,30.20,14,3,14,1.17
2013-1-28,80,69,61,66,62,57,98,81,54,30.31,30.19,18,6,18,0.00
2013-1-29,82,71,62,69,65,61,99,83,59,30.22,30.07,20,6,20,0.00
2013-1-30,102,73,67,68,66,61,92,81,63,30.07,29.88,28,12,28,0.00
2013-1-31,66,56,48,62,46,35,97,69,45,30.24,29.95,29,10,29,0.12
2013-2-1,64,54,46,46,39,26,84,59,24,30.46,30.22,16,6,16,1.28
2013-2-2,68,56,45,49,43,-24,77,63,33,30.31,30.17,14,6,14,0.00
2013-2-3,67,55,44,56,49,42,95,80,65,30.19,30.10,16,4,16,0.00
2013-2-4,68,55,46,51,46,35,95,74,33,30.14,30.05,14,3,14,0.00
2013-2-5,74,60,47,58,50,39,91,70,45,30.09,30.00,16,3,16,0.00
2013-2-6,76,66,59,62,58,55,88,75,58,30.09,30.01,14,4,14,0.00
2013-2-7,80,69,62,67,64,58,97,84,55,30.04,29.86,26,7,26,0.02
2013-2-8,70,64,58,67,61,56,97,90,77,30.08,29.89,15,6,15,0.77
2013-2-9,77,63,55,60,56,52,97,79,52,30.19,30.07,14,6,14,1.21
2013-2-10,80,69,60,64,60,55,87,74,54,30.23,30.12,25,9,25,0.00
2013-2-11,81,71,65,68,65,61,94,81,62,30.20,30.07,21,7,21,0.00
2013-2-12,81,73,66,71,68,65,97,87,71,30.08,29.93,23,5,23,0.00
2013-2-13,81,70,59,74,68,56,98,91,77,29.98,29.83,20,6,20,1.38
2013-2-14,64,60,58,62,59,57,98,95,86,30.05,29.92,16,3,16,0.18
2013-2-15,64,57,53,58,54,51,98,89,73,30.08,29.96,12,4,12,0.06
2013-2-16,66,57,50,54,47,35,93,72,46,30.15,29.95,30,11,30,0.00
2013-2-17,53,45,38,37,28,20,83,52,40,30.34,30.14,24,8,24,0.00
2013-2-18,68,53,36,50,38,25,84,61,33,30.36,30.19,20,6,20,1.80
2013-2-19,78,63,52,62,56,48,95,78,50,30.21,30.08,20,5,20,0.04
2013-2-20,72,63,57,63,59,53,98,87,70,30.21,30.02,16,4,16,0.01
2013-2-21,79,68,57,67,61,53,93,82,65,30.21,29.97,15,5,15,1.02
2013-2-22,83,71,64,70,66,62,97,86,63,30.06,29.98,16,5,16,0.00
2013-2-23,80,72,67,73,70,66,98,91,78,29.99,29.89,20,6,20,0.00
2013-2-24,75,70,68,72,69,67,99,96,88,29.95,29.86,14,3,14,0.04
2013-2-25,83,74,68,71,69,66,99,86,59,29.89,29.75,17,7,17,0.00
2013-2-26,75,71,66,72,67,62,97,89,74,29.88,29.68,27,7,27,0.97
2013-2-27,67,64,59,63,57,53,87,79,68,29.99,29.87,16,8,16,0.80
2013-2-28,70,63,59,58,54,-19,83,72,63,30.00,29.91,16,8,16,1.55
2013-3-1,61,57,51,50,44,-27,74,64,54,30.21,29.92,20,9,20,0.00
2013-3-2,57,53,46,43,41,-25,80,63,55,30.20,29.98,24,11,24,0.60
2013-3-3,54,48,41,39,36,-27,75,64,56,30.19,30.00,26,10,26,0.52
2013-3-4,76,50,40,42,36,28,90,62,43,30.24,30.14,15,5,15,2.62
2013-3-5,72,59,42,61,52,39,92,77,62,30.17,30.03,16,5,16,1.02
2013-3-6,66,58,52,64,47,39,95,68,50,30.14,29.96,28,13,28,0.11
2013-3-7,58,51,44,46,39,34,92,66,44,30.23,30.13,16,6,16,0.84
2013-3-8,66,55,44,50,46,39,96,74,41,30.24,30.14,15,5,15,0.00
2013-3-9,74,60,46,55,49,43,95,71,35,30.22,30.13,12,4,12,2.31
2013-3-10,78,65,56,59,55,52,90,72,47,30.15,30.04,22,7,22,0.38
2013-3-11,78,68,57,62,59,55,94,74,52,30.09,29.87,22,7,22,0.01
2013-3-12,69,63,58,67,59,52,97,86,77,30.05,29.83,20,10,20,0.42
2013-3-13,65,60,56,53,47,36,79,62,38,30.19,30.05,21,10,21,0.76
2013-3-14,60,56,50,53,39,26,79,54,31,30.28,30.17,21,9,21,0.00
2013-3-15,74,55,43,48,43,31,92,67,29,30.30,30.17,15,4,15,0.00
2013-3-16,74,59,47,59,51,44,97,78,38,30.19,30.08,17,4,17,0.01
2013-3-17,76,64,52,62,58,51,98,81,58,30.16,29.99,16,4,16,0.01
2013-3-18,77,67,59,68,63,57,94,87,79,30.02,29.84,24,6,24,0.00
2013-3-19,81,68,62,67,64,-13,98,87,57,30.00,29.89,17,4,17,0.32
2013-3-20,72,65,57,66,63,56,97,93,75,29.97,29.81,18,5,18,0.28
2013-3-21,76,57,48,59,45,32,98,67,33,30.00,29.88,17,6,17,0.00
2013-3-22,76,61,46,67,52,42,97,75,38,30.00,29.88,20,4,20,1.30
2013-3-23,82,72,64,75,69,-9,98,92,76,29.96,29.78,20,7,20,0.01
2013-3-24,79,73,68,74,71,67,98,93,84,29.95,29.64,25,8,25,0.00
2013-3-25,68,65,60,67,60,47,96,84,66,29.87,29.74,23,11,23,0.00
2013-3-31,70,68,66,61,60,60,84,77,70,30.02,30.00,16,3,16,0.00
2013-4-1,78,70,65,70,66,60,97,86,77,30.03,29.94,20,6,20,0.03
2013-4-2,75,68,61,67,64,-38,98,86,67,30.09,29.99,12,3,12,1.59
2013-4-3,82,70,62,70,65,61,96,84,60,30.07,29.93,24,6,24,0.33
2013-4-4,73,70,67,70,67,64,97,92,76,30.21,29.85,20,7,20,0.49
2013-4-5,71,66,61,66,62,56,97,87,74,30.00,29.80,22,8,22,0.07
2013-4-6,72,62,53,61,56,50,94,81,56,30.15,30.00,16,7,16,0.00
2013-4-7,81,68,59,63,60,56,96,76,47,30.14,30.05,14,5,14,0.00
2013-4-8,84,72,64,66,62,57,91,72,42,30.21,30.03,17,6,17,0.00
2013-4-9,83,74,64,67,65,62,95,76,54,30.14,30.05,16,5,16,0.00
2013-4-10,86,73,64,69,64,-30,91,75,48,30.10,29.95,17,6,17,0.00
2013-4-11,102,78,71,73,71,65,94,81,59,29.96,29.79,21,10,21,1.46
2013-4-12,78,76,71,75,72,68,94,90,84,29.93,29.76,0,0,0,1.61
2013-4-13,80,73,67,70,68,64,98,86,69,29.97,29.87,12,3,12,0.00
2013-4-14,84,74,67,74,68,62,92,83,66,29.99,29.84,28,8,28,0.82
2013-4-15,84,75,66,72,66,62,91,76,56,30.05,29.89,12,3,12,0.43
2013-4-16,92,78,68,75,70,-1,96,77,49,30.11,30.01,14,5,14,0.01
2013-4-17,87,77,67,69,66,61,95,70,44,30.20,29.99,14,5,14,0.00
2013-4-18,87,77,68,72,68,63,94,76,51,30.03,29.93,18,6,18,0.04
2013-4-19,88,79,72,74,71,68,95,78,54,29.99,29.91,24,9,24,0.00
2013-4-20,77,67,59,73,63,56,93,86,76,30.14,29.96,21,8,21,0.28
2013-4-21,81,69,59,70,64,-17,95,85,67,30.13,30.01,15,6,15,0.01
2013-4-22,81,71,66,69,66,62,98,87,67,30.07,29.97,131,6,131,0.06
2013-4-23,82,72,64,68,64,60,93,77,59,30.10,30.01,15,6,15,0.00
2013-4-24,83,71,61,68,63,58,94,78,46,30.13,30.06,16,6,16,0.00
2013-4-25,81,72,64,70,66,62,96,82,67,30.20,30.09,15,5,15,0.00
2013-4-26,82,74,65,72,68,64,95,81,66,30.22,30.14,14,4,14,0.00
2013-4-27,84,75,67,70,67,63,95,77,52,30.20,30.07,17,5,17,0.00
2013-4-28,86,76,66,70,66,60,92,73,43,30.11,29.95,21,7,21,0.03
2013-4-29,82,75,69,72,68,62,94,79,62,30.00,29.89,18,5,18,0.01
2013-4-30,87,76,67,72,69,66,97,82,54,29.99,29.90,14,6,14,1.58
2013-5-1,76,70,66,73,69,-34,98,96,91,29.99,29.90,15,4,15,1.29
2013-5-2,80,71,64,72,68,64,98,90,75,29.96,29.80,14,4,14,0.04
2013-5-3,79,73,68,71,69,65,97,86,73,29.81,29.71,16,6,16,0.02
2013-5-4,79,72,68,71,68,-12,93,84,73,29.81,29.68,22,7,22,0.58
2013-5-5,73,69,64,66,57,50,93,67,48,29.93,29.79,25,11,25,0.01
2013-5-6,72,68,65,65,58,54,89,71,59,30.01,29.89,20,8,20,0.30
2013-5-7,77,70,65,63,59,56,79,69,59,30.21,29.96,20,7,20,0.02
2013-5-8,78,70,61,65,62,58,93,75,59,30.12,30.02,17,4,17,0.00
2013-5-9,80,71,62,67,64,60,96,80,63,30.14,30.07,15,4,15,0.00
2013-5-10,87,75,64,71,67,63,97,80,50,30.12,29.98,17,4,17,0.00
2013-5-11,85,76,70,76,72,68,96,87,71,30.04,29.98,24,5,24,0.00
2013-5-12,82,76,70,74,70,-14,97,85,71,30.03,29.91,16,5,16,0.00
2013-5-13,81,74,65,70,60,50,92,64,39,30.13,30.00,20,7,20,0.00
2013-5-14,80,71,61,60,49,39,77,48,27,30.21,30.11,20,7,20,0.00
2013-5-15,85,72,61,63,60,54,91,68,42,30.20,30.06,14,4,14,0.00
2013-5-16,83,75,68,68,65,62,87,73,55,30.17,29.99,14,6,14,0.70
2013-5-17,83,76,71,70,68,-7,90,75,58,30.20,30.01,16,6,16,0.00
2013-5-18,83,76,69,75,71,67,94,83,73,30.20,30.01,15,5,15,0.00
2013-5-19,84,77,69,73,70,67,98,81,63,30.08,29.98,12,4,12,0.00
2013-5-20,89,79,72,76,70,-28,92,75,53,30.05,29.95,16,4,16,0.00
2013-5-21,87,75,68,73,69,-26,95,83,57,30.01,29.91,34,4,34,1.72
2013-5-22,83,76,69,74,71,68,98,86,71,29.96,29.88,15,4,15,0.01
2013-5-23,84,78,71,75,72,69,96,83,71,30.00,29.90,16,6,16,0.00
2013-5-24,87,81,76,77,72,67,90,77,53,30.06,29.96,9,1,9,0.00
2013-5-25,91,81,70,72,65,59,87,61,37,30.15,30.04,0,0,0,0.00
2013-5-26,87,77,65,63,58,47,88,56,28,30.21,30.08,3,0,3,1.15
2013-5-27,88,78,65,66,63,60,91,62,41,30.16,30.08,0,0,0,0.00
2013-5-28,89,78,68,76,70,66,93,77,54,30.12,30.00,0,0,0,0.22
2013-5-29,87,78,72,77,71,-30,94,79,54,30.08,30.00,0,0,0,0.90
2013-5-30,88,80,73,74,71,68,95,76,59,30.21,29.98,0,0,0,0.00
2013-5-31,91,80,72,75,71,-13,91,76,56,30.06,29.97,0,0,0,0.00
2013-6-1,88,79,73,77,73,70,97,85,65,30.03,29.92,0,0,0,2.89
2013-6-2,102,78,72,78,74,72,99,88,75,29.98,29.88,0,0,0,0.01
2013-6-3,97,79,74,76,75,73,98,86,73,29.98,29.88,0,0,0,0.48
2013-6-4,87,79,75,75,74,72,95,85,65,29.99,29.91,0,0,0,0.35
2013-6-5,84,78,74,76,73,-5,93,84,70,29.98,29.86,0,0,0,0.49
2013-6-6,102,76,73,77,73,72,98,91,80,29.87,29.61,0,0,0,2.86
2013-6-7,86,80,75,76,74,72,93,83,72,29.94,29.76,0,0,0,1.55
2013-6-8,87,79,73,78,75,71,97,87,73,30.09,29.94,0,0,0,1.78
2013-6-9,90,79,72,78,74,72,98,86,62,30.21,30.00,0,0,0,0.92
2013-6-10,102,80,75,78,76,73,96,86,68,30.20,30.00,0,0,0,1.49
2013-6-11,90,81,75,78,75,70,94,83,58,30.07,30.00,0,0,0,0.00
2013-6-12,88,82,74,79,75,-22,95,82,67,30.07,29.99,0,0,0,1.23
2013-6-13,87,82,76,77,75,74,96,81,66,30.16,29.90,0,0,0,0.05
2013-6-14,87,82,79,77,75,73,85,80,70,29.95,29.87,0,0,0,1.30
2013-6-15,87,82,79,78,77,74,88,83,76,30.04,29.90,0,0,0,0.00
2013-6-16,90,83,78,80,77,74,93,82,61,30.06,30.00,0,0,0,0.00
2013-6-17,90,83,76,79,76,73,95,81,64,30.20,29.98,0,0,0,0.00
2013-6-18,90,83,76,79,76,74,95,81,67,30.04,29.96,0,0,0,0.00
2013-6-19,90,83,73,79,76,71,97,80,68,30.02,29.96,0,0,0,0.20
2013-6-20,84,80,79,77,76,76,94,88,76,30.03,29.98,0,0,0,0.00
2013-6-21,86,79,72,77,74,-100,96,85,69,30.10,30.02,0,-1,0,0.31
2013-6-22,90,82,73,77,73,69,97,74,53,30.11,30.03,0,-5,0,0.01
2013-6-23,92,80,74,76,73,66,95,82,47,30.12,30.04,0,-4,0,0.51
2013-6-24,92,82,75,77,74,72,95,80,55,30.17,30.05,0,-4,0,0.00
2013-6-25,91,82,75,77,74,71,96,78,56,30.15,30.01,0,-12,0,0.00
2013-6-26,89,82,74,78,75,70,96,79,60,30.07,29.98,0,0,0,0.01
2013-6-27,89,82,73,78,75,71,96,81,66,30.05,29.94,0,-4,0,0.00
2013-6-28,89,83,77,78,76,74,91,80,66,29.97,29.84,0,0,0,0.00
2013-6-29,87,81,73,77,75,71,95,82,68,29.88,29.82,0,0,0,0.43
2013-7-4,91,77,72,77,74,71,98,89,59,30.15,30.04,0,0,0,0.29
2013-7-5,90,78,72,79,74,71,99,89,63,30.12,30.05,0,0,0,0.43
2013-7-6,92,80,74,78,74,71,97,84,53,30.10,30.03,0,0,0,0.00
2013-7-7,93,81,75,79,75,73,96,84,54,30.12,30.03,0,0,0,0.01
2013-7-8,90,80,75,78,75,73,97,87,61,30.15,30.07,0,0,0,0.61
2013-7-9,92,80,74,78,74,69,97,85,50,30.15,30.05,0,0,0,0.45
2013-7-10,88,78,73,77,74,72,97,86,66,30.08,29.95,0,0,0,0.45
2013-7-11,87,79,74,78,75,73,99,89,72,30.01,29.91,0,0,0,0.25
2013-7-12,87,79,74,79,75,71,97,88,71,29.94,29.88,9,1,14,0.33
2013-7-13,84,77,74,77,74,72,97,93,75,29.96,29.89,10,-2,18,0.59
2013-7-14,87,78,73,78,75,72,97,88,72,30.06,29.94,11,2,15,0.26
2013-7-15,89,79,72,77,74,71,98,84,59,30.10,30.00,12,3,17,0.41
2013-7-16,92,78,73,76,73,71,97,86,53,30.14,30.06,19,2,32,0.17
2013-7-17,92,78,73,77,73,65,98,87,55,30.15,30.04,16,2,25,0.03
2013-7-18,90,78,74,75,73,69,95,84,54,30.10,30.02,5,0,8,0.01
2013-7-19,87,77,74,77,74,72,96,91,67,30.11,30.03,0,0,0,0.15
2013-7-20,90,79,73,79,75,72,97,88,68,30.09,30.01,0,0,0,0.00
2013-7-21,90,82,75,80,77,74,98,86,71,30.11,30.03,0,0,0,0.01
2013-7-23,83,81,80,77,76,74,87,83,79,30.06,29.96,0,0,0,0.00
2013-7-24,88,82,78,79,77,75,93,83,72,29.99,29.91,0,0,0,0.34
2013-7-25,88,83,76,79,77,74,96,83,70,29.99,29.86,0,-3,0,0.49
2013-7-26,89,82,77,80,77,73,96,84,62,30.01,29.94,13,2,22,0.54
2013-7-27,88,83,78,77,76,74,97,82,66,29.99,29.91,9,3,15,0.00
2013-7-28,89,82,76,79,75,72,95,82,69,30.04,29.92,9,1,13,0.00
2013-7-29,90,82,74,78,75,73,97,81,66,30.13,30.01,8,2,12,0.00
2013-7-30,90,82,76,80,76,70,94,82,65,30.16,30.05,15,2,23,0.03
2013-7-31,92,81,75,80,75,71,94,82,59,30.12,29.99,10,2,14,0.01
2013-8-1,91,81,75,78,75,70,96,82,62,30.04,29.94,10,2,18,0.02
2013-8-2,90,82,74,79,76,73,96,82,67,30.03,29.93,10,2,16,0.00
2013-8-3,91,84,77,79,77,75,94,78,64,30.08,29.98,8,2,14,0.00
2013-8-4,90,85,81,81,78,75,90,79,71,30.07,29.98,13,2,22,0.05
2013-8-5,91,86,82,80,78,77,87,78,65,30.01,29.92,4,0,9,0.00
2013-8-6,92,82,78,81,77,73,96,84,65,29.97,29.87,0,0,0,0.07
2013-8-7,93,80,76,79,76,72,97,87,60,29.95,29.88,0,0,0,0.30
2013-8-8,94,82,76,79,76,72,96,83,53,30.01,29.91,0,0,0,0.01
2013-8-9,91,79,73,78,74,72,97,86,60,30.04,29.95,0,0,0,0.81
2013-8-10,95,82,73,78,75,72,98,81,52,30.11,30.01,0,0,0,0.01
2013-8-11,94,84,77,79,76,70,94,77,52,30.13,30.04,0,0,0,0.00
2013-8-12,93,84,77,81,78,75,95,81,60,30.11,29.99,0,0,0,0.00
2013-8-13,93,85,78,79,77,74,92,79,60,30.04,29.93,0,0,0,0.00
2013-8-14,92,84,78,79,77,72,91,80,63,29.99,29.91,0,0,0,0.02
2013-8-15,91,83,77,79,76,72,94,80,59,30.02,29.93,0,0,0,0.00
2013-8-16,92,82,80,78,76,72,90,82,55,30.03,29.95,0,0,0,0.01
2013-8-17,93,82,75,80,76,71,98,84,59,30.07,29.96,0,0,0,0.61
2013-8-18,93,80,75,78,76,74,97,87,57,30.07,30.00,0,0,0,0.34
2013-8-19,94,80,72,79,75,69,98,87,51,30.06,29.95,0,0,0,1.49
2013-8-20,91,78,73,79,74,70,98,88,64,30.07,29.97,0,0,0,0.36
2013-8-21,93,79,73,80,75,70,98,89,60,30.09,29.97,0,0,0,0.66
2013-8-22,91,79,72,78,75,70,98,89,62,30.07,29.97,0,0,0,1.98
2013-8-23,92,80,75,79,75,71,99,86,56,30.00,29.94,0,0,0,0.02
2013-8-24,92,79,74,80,75,73,97,87,58,30.11,29.98,11,1,21,0.13
2013-8-25,89,79,74,78,75,72,97,87,65,30.15,30.06,13,2,19,0.10
2013-8-26,91,80,74,78,75,73,98,86,57,30.14,29.99,14,3,19,0.15
2013-8-27,93,81,74,77,74,69,98,81,49,30.04,29.96,11,3,16,0.02
2013-8-28,89,80,73,75,73,70,96,80,56,30.05,29.96,11,3,16,0.00
2013-8-29,89,81,74,77,74,72,94,80,67,30.03,29.93,11,3,17,0.00
2013-8-30,89,82,75,80,76,71,95,83,64,29.99,29.88,10,1,14,0.21
2013-8-31,87,80,74,78,75,71,97,85,67,29.99,29.87,8,2,14,0.09
2013-9-1,89,81,76,77,75,73,97,82,63,29.97,29.90,8,2,12,0.00
2013-9-2,89,82,76,79,75,73,98,80,63,30.01,29.92,8,2,13,0.07
2013-9-3,89,82,75,78,75,73,97,81,65,30.02,29.92,8,2,14,0.00
2013-9-4,92,80,73,79,75,71,98,85,57,30.08,29.96,15,2,22,0.25
2013-9-5,91,81,74,80,76,71,98,84,65,30.08,29.99,10,2,14,0.06
2013-9-6,90,81,74,80,75,71,94,84,67,30.05,29.93,11,2,16,0.00
2013-9-7,89,78,71,76,73,70,95,84,61,30.01,29.91,10,3,16,0.03
2013-9-8,90,80,73,75,73,70,96,79,55,29.96,29.86,12,3,20,0.01
2013-9-9,92,82,74,75,72,68,95,74,48,30.02,29.92,11,2,16,0.00
2013-9-10,93,82,74,76,72,66,95,73,47,30.07,29.98,11,3,18,0.00
2013-9-11,93,83,74,76,72,66,95,72,43,30.06,29.97,11,3,19,0.00
2013-9-12,88,79,74,79,74,72,96,84,66,30.01,29.87,9,2,15,0.08
2013-9-13,88,80,74,77,74,73,98,84,67,29.90,29.81,10,2,15,0.00
2013-9-14,89,82,75,77,75,74,96,81,64,29.97,29.83,9,2,15,0.00
2013-9-15,94,81,74,78,73,69,95,79,52,30.07,29.94,23,3,33,0.01
2013-9-16,93,79,73,77,74,72,97,85,54,30.06,29.96,12,2,16,0.12
2013-9-17,93,79,72,76,73,71,98,83,51,30.04,29.92,11,2,19,0.03
2013-9-18,92,79,74,77,74,73,97,86,59,30.02,29.95,11,3,18,0.38
2013-9-19,90,79,73,77,74,72,97,86,62,30.04,29.95,10,2,15,0.30
2013-9-20,88,79,71,74,72,69,98,82,59,30.02,29.88,9,2,13,0.31
2013-9-21,88,79,71,77,71,68,94,77,54,29.93,29.77,10,3,13,0.00
2013-9-22,88,80,74,78,76,73,98,88,72,29.84,29.74,12,2,21,0.20
2013-9-23,82,78,76,79,76,74,98,96,87,29.93,29.81,10,2,15,0.01
2013-9-24,82,78,75,78,76,72,98,93,85,29.93,29.83,12,1,18,0.22
2013-9-25,81,75,70,79,74,69,99,95,84,29.91,29.78,0,0,0,3.89
2013-9-26,87,81,75,79,76,71,94,86,76,29.88,29.77,0,0,0,0.00
2013-9-27,84,76,70,75,71,68,95,85,66,29.96,29.86,0,0,0,0.00
2013-9-28,88,76,70,75,72,69,96,85,58,29.99,29.91,0,0,0,0.10
2013-9-29,88,77,70,73,70,64,95,80,50,29.99,29.88,0,0,0,0.00
2013-9-30,90,78,70,74,71,64,97,81,45,29.99,29.91,0,0,0,0.00
2013-10-1,91,80,72,76,73,70,96,81,54,30.04,29.94,0,0,0,0.00
2013-10-2,90,80,72,74,71,69,93,76,54,30.04,29.95,0,0,0,0.00
2013-10-3,90,79,72,75,72,69,93,79,54,30.06,29.96,0,0,0,0.00
2013-10-4,89,80,74,75,73,70,92,82,59,30.08,29.99,0,0,0,0.00
2013-10-5,88,80,73,76,73,69,95,82,56,30.05,29.93,0,0,0,0.00
2013-10-6,88,79,72,76,73,69,97,82,59,29.98,29.85,0,0,0,0.00
2013-10-7,86,79,74,79,76,72,98,89,77,29.86,29.74,0,0,0,0.39
2013-10-8,84,79,74,77,75,71,95,86,77,29.95,29.78,0,0,0,0.00
2013-10-9,80,74,68,71,69,65,91,85,71,30.04,29.94,0,0,0,0.00
2013-10-10,82,73,65,71,67,63,95,82,63,30.06,29.96,0,0,0,0.00
2013-10-11,83,74,66,70,67,64,98,79,60,30.04,29.95,0,0,0,0.00
2013-10-12,84,74,66,69,65,62,95,75,50,30.05,29.97,0,0,0,0.00
2013-10-13,84,74,66,70,64,61,90,72,47,30.08,29.98,6,0,10,0.00
2013-10-14,83,74,68,71,67,64,94,79,58,30.05,29.93,13,3,17,0.00
2013-10-15,79,72,66,72,68,65,97,89,78,30.00,29.90,12,4,15,0.00
2013-10-16,81,74,69,71,69,67,97,86,64,29.97,29.90,9,2,14,0.00
2013-10-17,83,75,69,75,71,68,97,87,70,29.97,29.89,7,1,11,0.00
2013-10-18,87,77,70,76,73,69,97,87,63,29.97,29.89,10,2,16,0.01
2013-10-19,87,78,72,78,74,71,98,89,70,29.94,29.86,7,1,12,0.00
2013-10-20,86,78,73,76,73,72,98,86,65,29.95,29.86,10,2,13,0.00
2013-10-21,87,78,71,76,73,70,96,87,65,29.99,29.92,9,2,14,0.00
2013-10-22,87,77,72,77,73,70,99,89,66,29.94,29.83,12,2,23,0.11
2013-10-23,77,73,66,74,65,54,98,77,50,30.01,29.81,14,4,20,0.17
2013-10-24,71,65,59,58,51,45,88,61,45,30.17,30.01,8,2,12,0.00
2013-10-25,78,67,56,61,56,50,94,70,42,30.25,30.15,10,3,15,0.00
2013-10-26,76,65,57,60,57,54,91,75,52,30.21,30.10,11,3,15,0.00
2013-10-27,78,65,56,61,56,52,95,74,47,30.13,30.05,11,3,14,0.00
2013-10-28,82,68,58,62,57,52,88,70,41,30.19,30.09,11,3,14,0.00
2013-10-29,85,73,64,67,64,61,95,75,47,30.22,30.11,8,3,14,0.00
2013-10-30,86,73,66,70,66,64,93,80,53,30.22,30.08,7,3,12,0.00
2013-10-31,85,74,66,71,67,64,96,81,53,30.12,29.96,14,2,20,0.00
2013-11-1,85,77,70,75,72,68,96,86,63,29.99,29.86,9,2,17,0.00
2013-11-2,77,70,62,75,67,60,97,90,73,29.99,29.80,9,-1,15,0.92
2013-11-3,64,61,59,60,56,51,96,85,66,30.07,29.97,10,3,17,0.00
2013-11-4,79,69,59,64,58,50,90,69,51,30.16,30.08,14,6,23,0.00
2013-11-5,84,70,63,69,65,62,96,84,60,30.15,30.04,11,4,20,0.00
2013-11-6,85,74,68,71,68,65,94,80,52,30.10,30.01,9,2,16,0.00
2013-11-7,79,71,67,70,67,66,97,88,70,30.06,29.97,10,2,13,0.00
2013-11-8,79,70,63,69,63,59,96,79,57,30.12,30.00,10,1,14,0.00
2013-11-9,83,72,62,68,63,58,88,75,60,30.15,30.08,0,0,0,0.00
2013-11-10,81,71,64,70,65,61,92,82,63,30.17,30.06,0,0,0,0.00
2013-11-11,82,71,64,69,66,62,95,85,62,30.15,30.06,0,0,1,0.01
2013-11-12,78,69,64,70,65,57,97,87,66,30.11,30.02,0,0,0,0.00
2013-11-13,68,60,51,58,50,46,82,70,57,30.31,30.09,12,1,20,0.00
2013-11-14,76,62,50,58,53,46,89,72,49,30.29,30.16,12,3,19,0.00
2013-11-15,71,66,61,66,62,57,95,87,78,30.17,30.05,5,1,9,0.03
2013-11-16,73,70,67,71,68,65,97,94,89,30.11,30.01,0,0,0,0.66
2013-11-17,82,74,69,73,69,65,94,86,72,30.07,29.99,10,1,14,0.01
2013-11-18,82,74,68,73,70,67,98,90,73,30.02,29.91,7,2,13,0.01
2013-11-19,79,72,65,72,68,60,99,88,71,29.97,29.87,7,2,13,0.02
2013-11-20,78,70,62,72,66,60,94,89,79,30.08,29.97,8,2,13,0.01
2013-11-21,84,74,69,73,70,67,95,86,68,30.17,30.07,10,2,18,0.00
2013-11-22,84,74,68,72,69,66,97,84,62,30.18,30.08,11,2,16,0.00
2013-11-23,80,70,64,69,66,63,97,87,62,30.12,30.02,12,3,16,0.00
2013-11-24,70,65,57,68,59,50,96,83,72,30.23,30.03,13,5,21,0.00
2013-11-25,75,66,57,63,58,51,83,75,62,30.21,30.04,12,3,21,0.00
2013-11-26,80,73,67,74,70,63,97,91,78,30.03,29.75,0,0,0,0.40
2013-11-27,72,62,48,71,56,40,97,81,69,30.21,29.73,21,8,32,0.42
2013-11-28,61,49,38,50,41,31,88,74,46,30.36,30.21,11,4,17,0.00
2013-11-29,72,60,50,57,52,47,92,78,55,30.36,30.26,11,5,17,0.00
2013-11-30,76,64,54,63,58,49,94,82,64,30.31,30.17,10,4,16,0.00
2013-12-1,70,61,58,65,60,57,99,95,82,30.19,29.99,10,3,14,0.00
2013-12-2,68,62,58,63,58,55,99,87,65,30.00,29.85,8,1,15,0.00
2013-12-3,77,67,56,67,62,54,96,85,66,29.97,29.88,11,2,16,0.00
2013-12-4,81,71,65,72,68,64,99,89,70,30.07,29.95,7,1,10,0.01
2013-12-5,81,71,65,69,66,64,98,87,61,30.16,30.06,12,2,17,0.01
2013-12-6,84,73,66,73,69,65,99,88,65,30.16,30.07,13,3,22,0.00
2013-12-7,82,72,67,70,68,66,99,89,67,30.23,30.13,8,2,10,0.01
2013-12-8,83,72,65,71,67,64,99,88,64,30.21,30.08,11,2,16,0.01
2013-12-9,82,73,66,73,68,66,98,87,68,30.17,30.07,12,2,19,0.00
2013-12-10,80,72,64,72,69,63,99,90,71,30.17,30.08,8,2,15,0.01
2013-12-11,80,68,61,68,64,57,96,86,65,30.24,30.15,9,3,14,0.02
2013-12-12,71,63,52,64,51,35,97,70,33,30.32,30.20,11,4,17,0.00
2013-12-13,75,61,48,58,51,38,86,70,46,30.28,30.10,10,3,15,0.00
2013-12-14,81,72,62,71,67,58,93,85,70,30.10,29.93,13,4,22,0.00
2013-12-15,74,66,58,72,62,52,95,87,77,30.14,29.88,12,3,18,0.04
2013-12-16,60,54,47,52,47,42,88,77,60,30.24,30.11,12,4,17,0.00
2013-12-17,68,55,45,52,46,39,93,74,34,30.27,30.16,9,3,12,0.00
2013-12-18,69,57,49,53,49,42,96,77,42,30.29,30.21,11,3,16,0.01
2013-12-19,75,60,46,59,51,43,93,76,51,30.27,30.16,11,2,15,0.00
2013-12-20,81,69,58,68,62,55,91,80,63,30.19,30.08,14,4,21,0.00
2013-12-21,83,74,67,72,68,64,95,83,66,30.11,30.00,15,5,26,0.00
2013-12-22,84,74,69,73,70,68,98,86,69,30.12,30.04,15,5,23,0.00
2013-12-23,82,74,69,74,71,68,98,91,76,30.15,30.07,13,3,19,0.00
2013-12-24,71,61,51,70,50,32,97,70,30,30.27,30.12,13,7,23,0.00
2013-12-25,75,60,46,59,49,35,80,68,57,30.26,30.12,9,3,13,0.00
2013-12-26,76,64,57,64,59,55,95,84,64,30.21,30.09,10,2,15,0.00
2013-12-27,69,64,60,64,61,56,92,88,84,30.25,30.14,0,0,0,0.00
2013-12-28,78,70,64,69,66,62,96,87,73,30.21,29.97,12,2,21,0.00
2013-12-29,74,69,63,72,67,62,96,94,90,30.02,29.88,13,4,19,0.55
2013-12-30,68,62,58,62,59,54,96,89,74,30.20,30.01,0,0,0,0.00
2013-12-31,68,62,58,56,53,50,86,71,54,30.30,30.16,0,0,0,0.00
2014-1-1,62,60,57,61,57,51,97,91,71,30.25,30.04,9,3,14,0.51
2014-1-2,77,66,59,73,65,55,99,96,84,30.04,29.83,15,4,24,0.56